createdAt,value
2022-08-26T00:01:48.979Z,5.57
2022-08-26T00:04:32.447Z,5.20
2022-08-26T00:07:15.539Z,5.68
2022-08-26T00:09:59.963Z,5.72
2022-08-26T00:15:26.773Z,5.65
2022-08-26T00:18:12.402Z,5.43
2022-08-26T00:21:06.296Z,5.25
2022-08-26T00:23:49.764Z,5.38
2022-08-26T00:26:34.946Z,6.03
2022-08-26T00:29:18.418Z,5.57
2022-08-26T00:32:02.708Z,5.45
2022-08-26T00:34:47.217Z,5.63
2022-08-26T00:37:30.529Z,5.65
2022-08-26T00:40:16.485Z,6.05
2022-08-26T00:43:02.399Z,6.00
2022-08-26T00:45:56.545Z,5.28
2022-08-26T00:48:42.941Z,6.43
2022-08-26T00:51:29.994Z,6.53
2022-08-26T00:54:14.139Z,6.72
2022-08-26T00:57:00.316Z,6.57
2022-08-26T00:59:46.954Z,6.82
2022-08-26T01:02:30.922Z,6.40
2022-08-26T01:05:14.134Z,5.93
2022-08-26T01:07:57.265Z,5.47
2022-08-26T01:10:40.765Z,5.60
2022-08-26T01:13:24.756Z,6.05
2022-08-26T01:16:13.815Z,5.90
2022-08-26T01:19:02.201Z,5.53
2022-08-26T01:21:51.138Z,5.70
2022-08-26T01:24:36.645Z,6.28
2022-08-26T01:27:22.157Z,5.95
2022-08-26T01:30:07.678Z,6.00
2022-08-26T01:32:51.592Z,5.93
2022-08-26T01:35:34.777Z,6.43
2022-08-26T01:38:18.977Z,6.88
2022-08-26T01:41:04.433Z,6.97
2022-08-26T01:44:00.962Z,6.47
2022-08-26T01:46:45.678Z,6.13
2022-08-26T01:49:30.147Z,6.03
2022-08-26T01:52:22.006Z,6.30
2022-08-26T01:55:05.958Z,6.65
2022-08-26T01:57:56.218Z,6.40
2022-08-26T02:00:39.677Z,6.65
2022-08-26T02:03:22.841Z,6.53
2022-08-26T02:06:09.227Z,7.03
2022-08-26T02:08:56.399Z,6.57
2022-08-26T02:11:39.935Z,6.55
2022-08-26T02:14:29.149Z,6.97
2022-08-26T02:17:12.314Z,7.00
2022-08-26T02:19:56.730Z,6.80
2022-08-26T02:22:41.352Z,6.65
2022-08-26T02:25:33.275Z,6.50
2022-08-26T02:28:17.675Z,6.63
2022-08-26T02:31:04.390Z,6.93
2022-08-26T02:33:47.727Z,7.28
2022-08-26T02:36:30.796Z,7.18
2022-08-26T02:39:18.011Z,6.93
2022-08-26T02:42:06.509Z,8.00
2022-08-26T02:47:35.096Z,7.40
2022-08-26T02:50:18.325Z,7.72
2022-08-26T02:53:01.384Z,6.55
2022-08-26T02:55:45.558Z,6.40
2022-08-26T02:58:31.746Z,6.00
2022-08-26T03:01:22.062Z,6.43
2022-08-26T03:04:09.573Z,6.80
2022-08-26T03:06:53.491Z,7.07
2022-08-26T03:09:38.622Z,6.80
2022-08-26T03:12:23.176Z,7.32
2022-08-26T03:15:15.927Z,8.00
2022-08-26T03:18:00.945Z,8.13
2022-08-26T03:20:45.545Z,7.07
2022-08-26T03:23:28.584Z,6.65
2022-08-26T03:26:14.871Z,7.35
2022-08-26T03:29:15.918Z,7.38
2022-08-26T03:32:01.589Z,6.85
2022-08-26T03:34:46.352Z,7.20
2022-08-26T03:37:31.405Z,7.57
2022-08-26T03:40:14.619Z,7.18
2022-08-26T03:42:57.705Z,7.43
2022-08-26T03:45:40.954Z,7.20
2022-08-26T03:48:25.677Z,8.77
2022-08-26T03:51:13.207Z,8.70
2022-08-26T03:53:57.694Z,8.43
2022-08-26T03:59:24.947Z,7.57
2022-08-26T04:02:08.616Z,6.85
2022-08-26T04:04:54.832Z,6.85
2022-08-26T04:07:37.837Z,6.65
2022-08-26T04:10:28.671Z,6.78
2022-08-26T04:13:12.877Z,6.30
2022-08-26T04:15:56.235Z,7.22
2022-08-26T04:18:46.459Z,7.13
2022-08-26T04:21:30.295Z,6.93
2022-08-26T04:24:16.617Z,7.15
2022-08-26T04:27:03.434Z,5.75
2022-08-26T04:29:47.774Z,6.55
2022-08-26T04:32:31.355Z,6.40
2022-08-26T04:35:14.424Z,7.03
2022-08-26T04:37:58.903Z,7.15
2022-08-26T04:40:46.646Z,6.80
2022-08-26T04:43:31.566Z,7.40
2022-08-26T04:46:18.826Z,8.38
2022-08-26T04:49:02.109Z,7.85
2022-08-26T04:51:45.314Z,7.20
2022-08-26T04:54:28.392Z,6.93
2022-08-26T04:57:11.507Z,7.53
2022-08-26T04:59:55.954Z,7.30
2022-08-26T05:02:39.450Z,7.35
2022-08-26T05:05:22.494Z,7.05
2022-08-26T05:08:05.572Z,7.43
2022-08-26T05:10:50.681Z,6.43
2022-08-26T05:13:34.870Z,6.25
2022-08-26T05:16:19.468Z,6.50
2022-08-26T05:19:03.671Z,6.30
2022-08-26T05:21:49.260Z,6.43
2022-08-26T05:24:32.446Z,7.18
2022-08-26T05:27:16.479Z,7.03
2022-08-26T05:30:01.136Z,6.45
2022-08-26T05:32:45.599Z,6.20
2022-08-26T05:35:31.968Z,5.78
2022-08-26T05:38:17.382Z,5.80
2022-08-26T05:41:00.415Z,5.82
2022-08-26T05:43:43.726Z,5.40
2022-08-26T05:46:27.691Z,4.63
2022-08-26T05:49:13.110Z,5.20
2022-08-26T05:51:56.265Z,5.32
2022-08-26T05:54:39.920Z,5.78
2022-08-26T05:57:23.246Z,5.43
2022-08-26T06:00:07.357Z,4.65
2022-08-26T06:02:55.289Z,5.30
2022-08-26T06:05:41.117Z,5.30
2022-08-26T06:08:24.451Z,5.18
2022-08-26T06:11:17.160Z,4.55
2022-08-26T06:14:05.353Z,5.13
2022-08-26T06:16:48.496Z,4.70
2022-08-26T06:19:32.697Z,4.72
2022-08-26T06:22:36.545Z,4.00
2022-08-26T06:25:36.121Z,4.15
2022-08-26T06:28:20.437Z,4.35
2022-08-26T06:31:04.513Z,3.88
2022-08-26T06:33:47.680Z,5.10
2022-08-26T06:36:32.362Z,5.30
2022-08-26T06:39:18.942Z,5.18
2022-08-26T06:42:06.272Z,5.05
2022-08-26T06:44:50.307Z,5.07
2022-08-26T06:47:34.155Z,5.15
2022-08-26T06:50:17.394Z,4.45
2022-08-26T06:53:01.451Z,5.38
2022-08-26T06:55:47.261Z,4.80
2022-08-26T06:58:35.665Z,5.78
2022-08-26T07:01:22.038Z,5.50
2022-08-26T07:04:10.032Z,5.47
2022-08-26T07:06:54.359Z,5.63
2022-08-26T07:09:37.478Z,5.93
2022-08-26T07:12:22.103Z,5.85
2022-08-26T07:15:05.986Z,5.43
2022-08-26T07:17:50.682Z,5.68
2022-08-26T07:20:33.723Z,5.38
2022-08-26T07:23:17.327Z,5.28
2022-08-26T07:26:00.937Z,5.43
2022-08-26T07:28:46.788Z,5.38
2022-08-26T07:31:39.237Z,5.18
2022-08-26T07:34:24.022Z,6.05
2022-08-26T07:37:08.811Z,5.82
2022-08-26T07:39:52.263Z,5.38
2022-08-26T07:42:35.416Z,5.88
2022-08-26T07:45:20.087Z,5.60
2022-08-26T07:48:04.274Z,5.03
2022-08-26T07:50:49.169Z,5.22
2022-08-26T07:53:35.487Z,5.28
2022-08-26T07:56:18.929Z,5.00
2022-08-26T07:59:02.290Z,4.90
2022-08-26T08:01:53.128Z,4.47
2022-08-26T08:07:19.375Z,4.38
2022-08-26T08:10:04.604Z,4.47
2022-08-26T08:12:51.305Z,4.40
2022-08-26T08:15:35.639Z,5.15
2022-08-26T08:18:20.765Z,5.20
2022-08-26T08:21:21.298Z,5.18
2022-08-26T08:24:05.675Z,4.65
2022-08-26T08:26:48.774Z,4.72
2022-08-26T08:29:31.813Z,4.25
2022-08-26T08:32:15.802Z,5.13
2022-08-26T08:35:00.785Z,5.68
2022-08-26T08:37:44.004Z,5.28
2022-08-26T08:40:29.206Z,4.35
2022-08-26T08:43:14.605Z,5.03
2022-08-26T08:46:04.377Z,5.55
2022-08-26T08:48:52.142Z,5.13
2022-08-26T08:51:48.067Z,4.30
2022-08-26T08:54:32.658Z,4.70
2022-08-26T08:57:24.510Z,5.43
2022-08-26T09:00:12.318Z,4.68
2022-08-26T09:03:00.366Z,5.28
2022-08-26T09:05:48.766Z,4.75
2022-08-26T09:08:36.973Z,5.38
2022-08-26T09:11:21.418Z,4.97
2022-08-26T09:14:06.022Z,5.68
2022-08-26T09:16:52.757Z,4.90
2022-08-26T09:19:41.231Z,5.45
2022-08-26T09:22:31.955Z,4.25
2022-08-26T09:25:17.116Z,4.82
2022-08-26T09:28:01.755Z,5.20
2022-08-26T09:30:54.624Z,5.35
2022-08-26T09:33:39.310Z,4.30
2022-08-26T09:36:26.303Z,4.53
2022-08-26T09:39:27.755Z,4.28
2022-08-26T09:42:16.808Z,4.80
2022-08-26T09:45:01.934Z,4.70
2022-08-26T09:47:56.041Z,5.80
2022-08-26T09:50:41.351Z,4.65
2022-08-26T09:53:31.015Z,5.20
2022-08-26T09:56:18.490Z,5.35
2022-08-26T09:59:03.894Z,5.03
2022-08-26T10:01:49.662Z,4.40
2022-08-26T10:04:32.878Z,4.85
2022-08-26T10:07:35.515Z,4.53
2022-08-26T10:10:24.566Z,4.97
2022-08-26T10:13:13.397Z,4.35
2022-08-26T10:16:02.842Z,4.43
2022-08-26T10:19:00.156Z,5.07
2022-08-26T10:24:40.634Z,5.15
2022-08-26T10:27:33.012Z,5.20
2022-08-26T10:30:20.677Z,6.70
2022-08-26T10:33:08.858Z,6.60
2022-08-26T10:35:55.239Z,7.53
2022-08-26T10:38:41.698Z,5.07
2022-08-26T10:41:33.148Z,5.50
2022-08-26T10:44:19.219Z,4.75
2022-08-26T10:47:15.971Z,4.47
2022-08-26T10:50:03.410Z,4.10
2022-08-26T10:52:55.783Z,5.13
2022-08-26T10:55:55.972Z,4.70
2022-08-26T10:58:55.830Z,4.25
2022-08-26T11:01:44.180Z,4.90
2022-08-26T11:04:52.369Z,7.60
2022-08-26T11:11:04.401Z,4.13
2022-08-26T11:14:01.707Z,3.28
2022-08-26T11:16:46.609Z,2.63
2022-08-26T11:20:09.172Z,2.13
2022-08-26T11:23:36.322Z,1.70
2022-08-26T11:26:35.669Z,1.48
2022-08-26T11:29:59.478Z,1.35
2022-08-26T11:32:51.999Z,1.38
2022-08-26T11:35:52.157Z,1.83
2022-08-26T11:38:35.501Z,1.83
2022-08-26T11:41:21.937Z,1.60
2022-08-26T11:44:09.220Z,1.63
2022-08-26T11:47:00.670Z,2.30
2022-08-26T11:49:43.698Z,2.15
2022-08-26T11:52:26.726Z,2.30
2022-08-26T11:55:12.150Z,1.83
2022-08-26T11:58:00.851Z,2.83
2022-08-26T12:00:52.388Z,2.45
2022-08-26T12:03:41.919Z,2.75
2022-08-26T12:06:29.179Z,3.60
2022-08-26T12:09:21.349Z,3.80
2022-08-26T12:12:13.152Z,4.07
2022-08-26T12:15:13.748Z,3.38
2022-08-26T12:17:56.818Z,2.58
2022-08-26T12:20:51.318Z,6.53
2022-08-26T12:23:43.359Z,5.65
2022-08-26T12:26:29.164Z,3.35
2022-08-26T12:29:27.154Z,2.63
2022-08-26T12:32:13.503Z,2.78
2022-08-26T12:34:56.934Z,4.32
2022-08-26T12:37:45.553Z,3.40
2022-08-26T12:40:35.811Z,2.70
2022-08-26T12:43:38.570Z,2.33
2022-08-26T12:46:28.622Z,4.50
2022-08-26T12:49:11.708Z,6.07
2022-08-26T12:51:54.726Z,4.82
2022-08-26T12:54:57.186Z,3.17
2022-08-26T12:57:40.290Z,2.40
2022-08-26T13:00:33.147Z,2.70
2022-08-26T13:03:44.792Z,2.97
2022-08-26T13:06:31.193Z,2.75
2022-08-26T13:09:32.089Z,2.40
2022-08-26T13:12:26.051Z,3.10
2022-08-26T13:15:09.740Z,3.28
2022-08-26T13:17:53.141Z,3.90
2022-08-26T13:20:44.118Z,4.40
2022-08-26T13:23:27.179Z,3.55
2022-08-26T13:26:10.206Z,3.30
2022-08-26T13:29:01.731Z,3.33
2022-08-26T13:31:46.872Z,2.75
2022-08-26T13:34:32.422Z,2.95
2022-08-26T13:37:15.446Z,2.72
2022-08-26T13:39:59.076Z,2.67
2022-08-26T13:42:49.399Z,2.25
2022-08-26T13:45:34.405Z,2.83
2022-08-26T13:48:21.565Z,3.33
2022-08-26T13:51:08.146Z,4.63
2022-08-26T13:53:52.986Z,3.28
2022-08-26T13:56:37.456Z,3.47
2022-08-26T13:59:20.550Z,3.58
2022-08-26T14:02:05.047Z,4.47
2022-08-26T14:04:48.126Z,3.95
2022-08-26T14:07:31.158Z,4.45
2022-08-26T14:10:14.140Z,6.47
2022-08-26T14:12:57.554Z,6.47
2022-08-26T14:15:40.778Z,6.47
2022-08-26T14:18:30.468Z,4.60
2022-08-26T14:21:15.125Z,5.40
2022-08-26T14:24:00.924Z,4.87
2022-08-26T14:26:44.374Z,4.25
2022-08-26T14:29:27.641Z,5.50
2022-08-26T14:32:15.427Z,5.28
2022-08-26T14:35:00.096Z,7.05
2022-08-26T14:40:29.997Z,4.75
2022-08-26T14:43:15.218Z,5.88
2022-08-26T14:45:58.592Z,6.15
2022-08-26T14:48:41.553Z,6.35
2022-08-26T14:51:26.096Z,6.28
2022-08-26T14:54:16.244Z,6.22
2022-08-26T14:57:02.267Z,5.68
2022-08-26T14:59:50.091Z,6.22
2022-08-26T15:02:34.104Z,5.30
2022-08-26T15:05:17.330Z,3.73
2022-08-26T15:08:02.646Z,4.55
2022-08-26T15:10:45.737Z,5.22
2022-08-26T15:13:28.804Z,5.85
2022-08-26T15:16:11.901Z,5.18
2022-08-26T15:18:54.988Z,7.35
2022-08-26T15:21:38.284Z,7.00
2022-08-26T15:24:25.522Z,6.28
2022-08-26T15:27:09.046Z,4.55
2022-08-26T15:29:52.802Z,4.28
2022-08-26T15:32:36.144Z,4.10
2022-08-26T15:35:19.220Z,4.60
2022-08-26T15:38:02.835Z,4.03
2022-08-26T15:40:47.375Z,3.85
2022-08-26T15:43:30.500Z,3.50
2022-08-26T15:46:13.931Z,3.30
2022-08-26T15:48:57.054Z,3.30
2022-08-26T15:51:45.635Z,3.47
2022-08-26T15:54:29.591Z,3.80
2022-08-26T15:57:16.423Z,4.18
2022-08-26T16:00:01.899Z,3.75
2022-08-26T16:02:54.741Z,3.67
2022-08-26T16:05:39.082Z,4.05
2022-08-26T16:08:22.400Z,4.30
2022-08-26T16:11:05.938Z,4.45
2022-08-26T16:13:50.606Z,3.63
2022-08-26T16:19:16.683Z,2.70
2022-08-26T16:21:59.711Z,3.58
2022-08-26T16:24:42.799Z,2.92
2022-08-26T16:27:25.814Z,3.67
2022-08-26T16:30:11.898Z,4.13
2022-08-26T16:32:55.663Z,4.97
2022-08-26T16:35:39.548Z,5.15
2022-08-26T16:38:22.614Z,6.17
2022-08-26T16:41:07.111Z,5.75
2022-08-26T16:43:50.474Z,4.97
2022-08-26T16:46:35.824Z,6.20
2022-08-26T16:49:19.190Z,6.30
2022-08-26T16:52:02.327Z,5.97
2022-08-26T16:54:45.433Z,6.85
2022-08-26T16:57:28.482Z,6.93
2022-08-26T17:00:17.303Z,7.10
2022-08-26T17:03:02.341Z,5.82
2022-08-26T17:05:45.514Z,4.93
2022-08-26T17:08:29.050Z,3.55
2022-08-26T17:11:12.614Z,5.03
2022-08-26T17:13:55.705Z,4.80
2022-08-26T17:16:39.035Z,5.10
2022-08-26T17:19:23.656Z,5.03
2022-08-26T17:22:08.276Z,5.45
2022-08-26T17:24:51.342Z,5.35
2022-08-26T17:27:34.342Z,5.18
2022-08-26T17:30:18.451Z,4.43
2022-08-26T17:33:01.466Z,4.07
2022-08-26T17:35:56.470Z,4.55
2022-08-26T17:38:39.772Z,5.22
2022-08-26T17:41:22.840Z,4.97
2022-08-26T17:44:06.756Z,4.97
2022-08-26T17:46:49.915Z,5.00
2022-08-26T17:49:33.109Z,5.10
2022-08-26T17:52:17.545Z,4.50
2022-08-26T17:55:00.560Z,4.97
2022-08-26T17:57:43.905Z,4.32
2022-08-26T18:00:36.660Z,4.35
2022-08-26T18:03:20.296Z,4.40
2022-08-26T18:06:04.086Z,4.40
2022-08-26T18:08:48.675Z,4.80
2022-08-26T18:11:32.824Z,4.82
2022-08-26T18:14:15.969Z,4.68
2022-08-26T18:16:59.022Z,4.82
2022-08-26T18:22:26.463Z,5.28
2022-08-26T18:25:12.687Z,4.80
2022-08-26T18:27:55.761Z,5.43
2022-08-26T18:30:39.301Z,5.90
2022-08-26T18:33:22.387Z,7.47
2022-08-26T18:36:06.239Z,7.70
2022-08-26T18:38:50.726Z,9.15
2022-08-26T18:41:43.412Z,8.00
2022-08-26T18:44:26.487Z,7.45
2022-08-26T18:47:09.584Z,7.18
2022-08-26T18:49:52.733Z,7.10
2022-08-26T18:52:35.846Z,5.97
2022-08-26T18:55:18.911Z,5.70
2022-08-26T18:58:03.404Z,5.00
2022-08-26T19:00:46.576Z,6.25
2022-08-26T19:03:29.667Z,5.35
2022-08-26T19:06:15.376Z,4.78
2022-08-26T19:08:58.530Z,5.22
2022-08-26T19:11:43.017Z,4.50
2022-08-26T19:17:11.785Z,4.40
2022-08-26T19:19:54.919Z,6.03
2022-08-26T19:22:37.962Z,5.60
2022-08-26T19:25:20.985Z,4.57
2022-08-26T19:28:04.272Z,6.05
2022-08-26T19:30:53.387Z,5.22
2022-08-26T19:33:37.216Z,6.10
2022-08-26T19:36:22.840Z,5.05
2022-08-26T19:39:07.731Z,5.35
2022-08-26T19:41:51.782Z,5.43
2022-08-26T19:44:52.330Z,5.23
2022-08-26T19:47:37.069Z,5.03
2022-08-26T19:53:04.118Z,8.23
2022-08-26T19:55:47.170Z,6.28
2022-08-26T19:58:30.189Z,7.80
2022-08-26T20:01:14.663Z,7.80
2022-08-26T20:03:59.075Z,5.70
2022-08-26T20:06:42.171Z,4.97
2022-08-26T20:09:25.247Z,5.32
2022-08-26T20:12:09.371Z,5.13
2022-08-26T20:14:52.444Z,4.93
2022-08-26T20:17:35.737Z,5.15
2022-08-26T20:20:37.877Z,5.05
2022-08-26T20:23:21.076Z,4.70
2022-08-26T20:26:04.539Z,5.60
2022-08-26T20:28:47.558Z,5.78
2022-08-26T20:31:35.128Z,5.53
2022-08-26T20:34:19.507Z,5.68
2022-08-26T20:37:04.667Z,4.55
2022-08-26T20:39:48.633Z,4.22
2022-08-26T20:42:31.966Z,4.67
2022-08-26T20:45:15.009Z,5.38
2022-08-26T20:47:58.122Z,5.60
2022-08-26T20:50:41.275Z,5.65
2022-08-26T20:53:25.959Z,5.35
2022-08-26T20:58:55.461Z,4.28
2022-08-26T21:01:42.083Z,6.50
2022-08-26T21:04:27.525Z,8.55
2022-08-26T21:07:10.634Z,11.05
2022-08-26T21:09:55.021Z,9.43
2022-08-26T21:12:38.403Z,7.60
2022-08-26T21:15:22.164Z,5.60
2022-08-26T21:18:05.960Z,5.13
2022-08-26T21:20:49.028Z,5.97
2022-08-26T21:23:32.523Z,5.80
2022-08-26T21:26:18.005Z,6.00
2022-08-26T21:29:02.478Z,5.43
2022-08-26T21:31:46.682Z,4.93
2022-08-26T21:34:30.067Z,5.85
2022-08-26T21:37:15.381Z,6.63
2022-08-26T21:40:01.941Z,6.07
2022-08-26T21:42:46.531Z,7.25
2022-08-26T21:45:31.037Z,6.72
2022-08-26T21:48:14.132Z,7.80
2022-08-26T21:50:58.090Z,7.60
2022-08-26T21:53:41.698Z,7.47
2022-08-26T21:56:26.882Z,6.72
2022-08-26T21:59:11.994Z,5.65
2022-08-26T22:01:55.352Z,5.53
2022-08-26T22:04:38.421Z,6.10
2022-08-26T22:07:21.435Z,5.22
2022-08-26T22:10:05.039Z,5.38
2022-08-26T22:12:48.157Z,5.40
2022-08-26T22:15:35.387Z,5.22
2022-08-26T22:18:21.429Z,6.28
2022-08-26T22:21:06.667Z,6.60
2022-08-26T22:23:49.744Z,6.57
2022-08-26T22:26:34.178Z,6.18
2022-08-26T22:29:17.389Z,6.15
2022-08-26T22:32:02.514Z,5.60
2022-08-26T22:34:45.800Z,6.80
2022-08-26T22:37:28.835Z,7.50
2022-08-26T22:40:13.205Z,6.15
2022-08-26T22:42:58.804Z,6.25
2022-08-26T22:45:45.806Z,5.65
2022-08-26T22:48:30.240Z,5.25
2022-08-26T22:51:13.689Z,6.07
2022-08-26T22:53:56.743Z,6.72
2022-08-26T22:56:40.826Z,6.25
2022-08-26T22:59:24.542Z,7.18
2022-08-26T23:02:07.901Z,5.80
2022-08-26T23:04:56.005Z,6.47
2022-08-26T23:07:39.230Z,8.20
2022-08-26T23:10:22.596Z,7.38
2022-08-26T23:13:08.153Z,5.38
2022-08-26T23:16:00.149Z,5.97
2022-08-26T23:18:43.218Z,5.78
2022-08-26T23:21:27.648Z,5.72
2022-08-26T23:24:12.111Z,6.03
2022-08-26T23:26:55.147Z,5.65
2022-08-26T23:29:39.759Z,5.50
2022-08-26T23:32:23.125Z,5.05
2022-08-26T23:35:05.994Z,4.75
2022-08-26T23:37:52.973Z,4.93
2022-08-26T23:40:37.499Z,5.70
2022-08-26T23:43:20.583Z,5.90
2022-08-26T23:46:03.713Z,6.28
2022-08-26T23:48:47.012Z,5.95
2022-08-26T23:51:48.239Z,4.60
2022-08-26T23:54:33.185Z,4.25
2022-08-26T23:57:17.367Z,4.20
